Time;durP1;ratioP1;P1;durP2;ratioP2;P2;SDS_P1;SDS_P2;PMS_P1;PMS_P2;Temp;Humidity;BMP_temperature;BMP_pressure;BME280_temperature;BME280_humidity;BME280_pressure;Samples;Min_cycle;Max_cycle;Signal;HPM_P1;HPM_P2
2022/08/02 00:00:55;;;;;;;2.70;2.33;;;17.40;99.90;;;;;;5087491;28;20254;-60
2022/08/02 00:03:20;;;;;;;4.10;2.33;;;17.40;99.90;;;;;;5091392;28;20243;-60
2022/08/02 00:05:46;;;;;;;3.40;2.30;;;17.30;99.90;;;;;;5086459;28;20576;-60
2022/08/02 00:08:12;;;;;;;3.03;2.10;;;17.30;99.90;;;;;;5082194;28;20171;-60
2022/08/02 00:10:37;;;;;;;8.97;2.57;;;17.30;99.90;;;;;;5078947;28;20202;-60
2022/08/02 00:13:03;;;;;;;2.70;2.50;;;17.30;99.90;;;;;;5084175;28;20189;-60
2022/08/02 00:15:29;;;;;;;2.20;2.10;;;17.30;99.90;;;;;;5085877;28;20185;-60
2022/08/02 00:17:54;;;;;;;5.63;2.33;;;17.20;99.90;;;;;;5085787;28;20178;-59
2022/08/02 00:20:20;;;;;;;2.87;2.30;;;17.20;99.90;;;;;;5079654;28;20195;-59
2022/08/02 00:22:46;;;;;;;3.40;2.47;;;17.20;99.90;;;;;;5090300;28;20562;-59
2022/08/02 00:25:11;;;;;;;10.03;2.27;;;17.20;99.90;;;;;;5082400;28;20175;-59
2022/08/02 00:27:37;;;;;;;2.60;2.40;;;17.20;99.90;;;;;;5086251;28;20212;-59
2022/08/02 00:30:04;;;;;;;2.40;1.80;;;17.10;99.90;;;;;;5086496;28;20174;-61
2022/08/02 00:32:29;;;;;;;3.40;1.90;;;17.10;99.90;;;;;;5090799;28;20658;-59
2022/08/02 00:34:55;;;;;;;2.47;2.20;;;17.00;99.90;;;;;;5073761;28;20428;-59
2022/08/02 00:37:20;;;;;;;4.40;2.37;;;16.90;99.90;;;;;;5084916;28;20272;-59
2022/08/02 00:39:46;;;;;;;3.00;2.30;;;16.90;99.90;;;;;;5083328;28;20719;-59
2022/08/02 00:42:15;;;;;;;2.20;2.00;;;16.90;99.90;;;;;;5070708;28;20201;-59
2022/08/02 00:44:41;;;;;;;3.00;2.20;;;16.90;99.90;;;;;;5080719;28;20182;-60
2022/08/02 00:47:07;;;;;;;3.40;2.30;;;16.90;99.90;;;;;;5079652;28;20438;-59
2022/08/02 00:49:32;;;;;;;2.77;2.40;;;16.90;99.90;;;;;;5082255;28;20420;-59
2022/08/02 00:51:58;;;;;;;3.17;2.40;;;16.80;99.90;;;;;;5085152;28;20205;-59
2022/08/02 00:54:23;;;;;;;4.10;2.43;;;16.80;99.90;;;;;;5088867;28;20650;-59
2022/08/02 00:56:49;;;;;;;2.13;1.93;;;16.80;99.90;;;;;;5083108;28;20178;-59
2022/08/02 00:59:15;;;;;;;2.40;2.20;;;16.80;99.90;;;;;;5090452;28;20177;-60
2022/08/02 01:01:41;;;;;;;3.47;2.30;;;16.70;99.90;;;;;;5083641;28;20675;-60
2022/08/02 01:04:12;;;;;;;2.77;2.20;;;16.70;99.90;;;;;;5086558;28;20166;-59
2022/08/02 01:06:40;;;;;;;4.40;2.10;;;16.70;99.90;;;;;;5085533;28;20451;-59
2022/08/02 01:09:06;;;;;;;2.90;2.17;;;16.70;99.90;;;;;;5089334;28;20416;-59
2022/08/02 01:11:33;;;;;;;6.53;2.90;;;16.60;99.90;;;;;;5080924;28;20458;-59
2022/08/02 01:14:05;;;;;;;3.53;2.90;;;16.60;99.90;;;;;;5083843;28;21124;-59
2022/08/02 01:16:36;;;;;;;2.40;2.20;;;16.60;99.90;;;;;;5088420;28;20451;-59
2022/08/02 01:19:16;;;;;;;2.53;2.00;;;16.50;99.90;;;;;;5087338;28;20428;-59
2022/08/02 01:22:14;;;;;;;5.23;2.30;;;16.50;99.90;;;;;;5075516;28;20555;-59
2022/08/02 01:25:11;;;;;;;2.30;2.10;;;16.50;99.90;;;;;;5071642;28;20428;-59
2022/08/02 01:27:46;;;;;;;5.57;2.37;;;16.50;99.90;;;;;;5081755;28;20870;-59
2022/08/02 01:30:14;;;;;;;4.90;2.10;;;16.50;99.90;;;;;;5088739;28;20443;-59
2022/08/02 01:32:49;;;;;;;2.27;2.07;;;16.50;99.90;;;;;;5086924;28;20491;-59
2022/08/02 01:35:22;;;;;;;3.93;2.53;;;16.50;99.90;;;;;;5083058;28;20439;-59
2022/08/02 01:37:53;;;;;;;3.00;2.13;;;16.50;99.90;;;;;;5085237;28;20423;-59
2022/08/02 01:40:29;;;;;;;2.30;2.10;;;16.50;99.90;;;;;;5089481;28;20846;-59
2022/08/02 01:42:56;;;;;;;3.23;2.50;;;16.50;99.90;;;;;;5078348;28;20451;-59
2022/08/02 01:45:25;;;;;;;3.53;2.40;;;16.50;99.90;;;;;;5081631;28;20420;-59
2022/08/02 01:47:52;;;;;;;7.47;2.23;;;16.40;99.90;;;;;;5085317;28;20439;-59
2022/08/02 01:50:25;;;;;;;3.73;2.77;;;16.40;99.90;;;;;;5078653;28;20443;-59
2022/08/02 01:52:54;;;;;;;3.10;2.30;;;16.40;99.90;;;;;;5087178;28;20439;-59
2022/08/02 01:55:31;;;;;;;3.10;2.37;;;16.40;99.90;;;;;;5087240;28;20418;-59
2022/08/02 01:57:59;;;;;;;6.03;2.40;;;16.40;99.90;;;;;;5081004;28;20427;-60
2022/08/02 02:00:30;;;;;;;3.40;2.70;;;16.40;99.90;;;;;;5081766;28;20451;-59
2022/08/02 02:02:57;;;;;;;3.20;2.37;;;16.40;99.90;;;;;;5084107;28;20463;-59
2022/08/02 02:05:26;;;;;;;5.40;2.97;;;16.40;99.90;;;;;;5087328;28;20424;-59
2022/08/02 02:07:56;;;;;;;6.60;4.40;;;16.40;99.90;;;;;;5076255;28;20426;-59
2022/08/02 02:10:27;;;;;;;5.10;3.50;;;16.50;99.90;;;;;;5086407;28;20435;-59
2022/08/02 02:12:55;;;;;;;9.37;3.40;;;16.50;99.90;;;;;;5078763;28;20431;-59
2022/08/02 02:15:22;;;;;;;3.83;3.13;;;16.50;99.90;;;;;;5088280;28;20757;-60
2022/08/02 02:17:50;;;;;;;4.00;3.60;;;16.50;99.90;;;;;;5083840;28;20454;-59
2022/08/02 02:20:18;;;;;;;8.20;3.80;;;16.50;99.90;;;;;;5083888;28;20529;-59
2022/08/02 02:22:44;;;;;;;9.23;4.50;;;16.60;99.90;;;;;;5077748;28;20471;-60
2022/08/02 02:25:11;;;;;;;4.70;3.73;;;16.50;99.90;;;;;;5074792;28;20428;-59
2022/08/02 02:27:48;;;;;;;3.87;3.43;;;16.50;99.90;;;;;;5075829;28;20453;-59
2022/08/02 02:30:15;;;;;;;3.53;3.23;;;16.50;99.90;;;;;;5081445;28;20452;-59
2022/08/02 02:32:44;;;;;;;6.00;3.63;;;16.50;99.90;;;;;;5084225;28;20465;-60
2022/08/02 02:35:12;;;;;;;9.67;3.87;;;16.50;99.90;;;;;;5077636;28;21021;-59
2022/08/02 02:37:39;;;;;;;9.33;3.43;;;16.50;99.90;;;;;;5080715;28;20481;-60
2022/08/02 02:40:07;;;;;;;3.67;3.33;;;16.40;99.90;;;;;;5077196;28;20442;-59
2022/08/02 02:42:34;;;;;;;4.33;2.83;;;16.40;99.90;;;;;;5080391;28;20504;-59
2022/08/02 02:45:01;;;;;;;5.23;3.10;;;16.40;99.90;;;;;;5078943;28;21135;-59
2022/08/02 02:47:30;;;;;;;5.93;3.20;;;16.40;99.90;;;;;;5085513;28;20477;-59
2022/08/02 02:49:57;;;;;;;14.20;4.30;;;16.40;99.90;;;;;;5075025;28;20428;-60
2022/08/02 02:52:24;;;;;;;11.23;3.97;;;16.30;99.90;;;;;;5076093;28;20869;-60
2022/08/02 02:54:51;;;;;;;10.83;3.60;;;16.30;99.90;;;;;;5083339;28;20434;-59
2022/08/02 02:57:18;;;;;;;9.53;3.50;;;16.30;99.90;;;;;;5083586;28;20435;-59
2022/08/02 02:59:44;;;;;;;5.30;3.43;;;16.20;99.90;;;;;;5083461;28;20536;-60
2022/08/02 03:02:10;;;;;;;38.00;4.10;;;16.20;99.90;;;;;;5085312;28;21015;-60
2022/08/02 03:04:39;;;;;;;6.00;3.83;;;16.10;99.90;;;;;;5081492;28;20511;-59
2022/08/02 03:07:04;;;;;;;18.83;3.83;;;16.10;99.90;;;;;;5080355;28;20261;-59
2022/08/02 03:09:30;;;;;;;17.57;3.70;;;16.10;99.90;;;;;;5078744;28;20515;-59
2022/08/02 03:11:56;;;;;;;10.23;3.30;;;16.00;99.90;;;;;;5085324;28;20201;-59
2022/08/02 03:14:22;;;;;;;3.97;3.40;;;15.90;99.90;;;;;;5085072;28;20749;-59
2022/08/02 03:16:53;;;;;;;4.40;3.90;;;15.90;99.90;;;;;;5080366;28;20925;-59
2022/08/02 03:19:21;;;;;;;4.50;3.70;;;15.90;99.90;;;;;;5082639;28;20477;-59
2022/08/02 03:21:48;;;;;;;6.73;3.40;;;15.90;99.90;;;;;;5090375;28;20914;-59
2022/08/02 03:24:14;;;;;;;3.90;3.17;;;15.90;99.90;;;;;;5088397;28;20507;-59
2022/08/02 03:26:40;;;;;;;3.37;3.00;;;16.00;99.90;;;;;;5086850;28;20525;-59
2022/08/02 03:29:06;;;;;;;3.40;3.10;;;16.00;99.90;;;;;;5088497;28;20223;-59
2022/08/02 03:31:31;;;;;;;7.03;3.43;;;16.00;99.90;;;;;;5070479;28;20456;-59
2022/08/02 03:33:58;;;;;;;3.93;2.77;;;16.00;99.90;;;;;;5073410;28;20460;-59
2022/08/02 03:36:26;;;;;;;9.53;3.37;;;16.00;99.90;;;;;;5083939;28;20170;-59
2022/08/02 03:38:53;;;;;;;9.43;3.70;;;16.00;99.90;;;;;;5077510;28;20515;-60
2022/08/02 03:41:21;;;;;;;19.93;4.00;;;16.00;99.90;;;;;;5075562;28;20504;-60
2022/08/02 03:43:48;;;;;;;4.80;3.40;;;16.00;99.90;;;;;;5070882;28;20453;-60
2022/08/02 03:46:16;;;;;;;6.93;3.10;;;16.00;99.90;;;;;;5081096;28;20826;-57
2022/08/02 03:48:42;;;;;;;5.60;3.20;;;16.00;99.90;;;;;;5076684;28;20851;-57
2022/08/02 03:51:09;;;;;;;16.93;3.50;;;16.00;99.90;;;;;;5076777;28;21007;-54
2022/08/02 03:53:36;;;;;;;6.80;3.07;;;16.00;99.90;;;;;;5070248;28;21563;-58
2022/08/02 03:56:02;;;;;;;6.13;3.50;;;15.90;99.90;;;;;;5081109;28;20427;-59
2022/08/02 03:58:28;;;;;;;5.30;3.33;;;15.90;99.90;;;;;;5080567;28;20427;-56
2022/08/02 04:00:56;;;;;;;3.60;3.30;;;15.90;99.90;;;;;;5073006;28;20456;-57
2022/08/02 04:03:22;;;;;;;10.87;3.60;;;15.90;99.90;;;;;;5070858;28;20207;-57
2022/08/02 04:05:48;;;;;;;5.17;3.20;;;15.90;99.90;;;;;;5079488;28;20424;-57
2022/08/02 04:08:14;;;;;;;8.90;3.43;;;15.90;99.90;;;;;;5088334;28;20173;-57
2022/08/02 04:13:31;;;;;;;6.00;3.20;;;15.90;99.90;;;;;;5076982;28;20708;-56
2022/08/02 04:16:02;;;;;;;3.17;2.70;;;15.80;99.90;;;;;;5088272;28;20428;-57
2022/08/02 04:18:36;;;;;;;10.43;3.37;;;15.80;99.90;;;;;;5079107;28;20933;-56
2022/08/02 04:21:04;;;;;;;11.03;3.37;;;15.80;99.90;;;;;;5081742;28;20471;-56
2022/08/02 04:23:32;;;;;;;3.40;2.80;;;15.80;99.90;;;;;;5083002;28;20923;-57
2022/08/02 04:26:00;;;;;;;7.33;3.00;;;15.70;99.90;;;;;;5085526;28;20485;-59
2022/08/02 04:28:26;;;;;;;4.00;3.37;;;15.70;99.90;;;;;;5075596;28;20432;-59
2022/08/02 04:30:52;;;;;;;3.57;3.07;;;15.70;99.90;;;;;;5078392;28;20535;-59
2022/08/02 04:33:18;;;;;;;4.10;3.03;;;15.70;99.90;;;;;;5087789;28;20515;-60
2022/08/02 04:35:44;;;;;;;16.60;3.73;;;15.70;99.90;;;;;;5087517;28;20212;-60
2022/08/02 04:38:13;;;;;;;14.90;4.20;;;15.70;99.90;;;;;;5088412;28;20184;-59
2022/08/02 04:40:39;;;;;;;3.40;2.90;;;15.70;99.90;;;;;;5085068;28;20448;-59
2022/08/02 04:43:04;;;;;;;5.43;2.97;;;15.70;99.90;;;;;;5081162;28;20482;-61
2022/08/02 04:45:31;;;;;;;11.30;2.93;;;15.70;99.90;;;;;;5085267;28;20170;-60
2022/08/02 04:47:56;;;;;;;3.80;3.40;;;15.70;99.90;;;;;;5079292;28;20358;-59
2022/08/02 04:50:22;;;;;;;7.87;2.47;;;15.70;99.90;;;;;;5084079;28;20960;-60
2022/08/02 04:52:48;;;;;;;3.83;3.03;;;15.70;99.90;;;;;;5075831;28;20658;-60
2022/08/02 04:55:13;;;;;;;7.67;2.80;;;15.70;99.90;;;;;;5076534;28;20173;-60
2022/08/02 04:57:54;;;;;;;7.67;3.33;;;15.70;99.90;;;;;;5078520;28;20185;-57
2022/08/02 05:00:20;;;;;;;4.20;3.20;;;15.70;99.90;;;;;;5078116;28;20631;-58
2022/08/02 05:02:46;;;;;;;3.53;2.87;;;15.60;99.90;;;;;;5086333;28;21106;-57
2022/08/02 05:05:12;;;;;;;39.30;4.50;;;15.70;99.90;;;;;;5086461;28;20469;-56
2022/08/02 05:07:38;;;;;;;10.70;3.57;;;15.70;99.90;;;;;;5088371;28;20432;-57
2022/08/02 05:10:04;;;;;;;7.13;3.40;;;15.70;99.90;;;;;;5084395;28;20468;-57
2022/08/02 05:12:29;;;;;;;17.10;3.70;;;15.60;99.90;;;;;;5089217;28;20547;-57
2022/08/02 05:14:55;;;;;;;8.03;3.50;;;15.60;99.90;;;;;;5090186;28;20408;-57
2022/08/02 05:17:21;;;;;;;13.23;4.33;;;15.50;99.90;;;;;;5088084;28;20172;-57
2022/08/02 05:19:46;;;;;;;3.70;3.40;;;15.50;99.90;;;;;;5080173;28;20181;-56
2022/08/02 05:22:12;;;;;;;13.47;3.70;;;15.50;99.90;;;;;;5075032;28;20221;-57
2022/08/02 05:24:37;;;;;;;18.93;3.93;;;15.50;99.90;;;;;;5087053;28;20184;-57
2022/08/02 05:27:03;;;;;;;17.73;4.40;;;15.50;99.90;;;;;;5084631;28;20173;-58
2022/08/02 05:29:29;;;;;;;5.40;3.43;;;15.50;99.90;;;;;;5088321;28;20635;-57
2022/08/02 05:31:54;;;;;;;12.30;3.87;;;15.50;99.90;;;;;;5091089;28;20804;-56
2022/08/02 05:34:20;;;;;;;6.23;3.83;;;15.50;99.90;;;;;;5085825;28;20189;-57
2022/08/02 05:36:45;;;;;;;5.37;3.23;;;15.50;99.90;;;;;;5086454;28;20189;-59
2022/08/02 05:39:11;;;;;;;4.23;3.00;;;15.60;99.90;;;;;;5083529;28;20589;-58
2022/08/02 05:41:37;;;;;;;5.20;3.57;;;15.60;99.90;;;;;;5088625;28;20194;-57
2022/08/02 05:44:03;;;;;;;11.43;3.20;;;15.70;99.90;;;;;;5080429;28;20950;-58
2022/08/02 05:46:29;;;;;;;50.17;4.53;;;15.70;99.90;;;;;;5086508;28;20174;-57
2022/08/02 05:48:55;;;;;;;4.80;3.73;;;15.70;99.90;;;;;;5090918;28;20457;-58
2022/08/02 05:51:38;;;;;;;6.10;3.37;;;15.70;99.90;;;;;;5080181;28;20265;-57
2022/08/02 05:54:17;;;;;;;6.37;3.87;;;15.80;99.90;;;;;;5075626;28;20582;-57
2022/08/02 05:57:09;;;;;;;3.63;3.33;;;15.90;99.90;;;;;;5088963;28;20478;-58
2022/08/02 05:59:53;;;;;;;5.37;3.17;;;15.90;99.90;;;;;;5081859;28;21119;-57
2022/08/02 06:02:29;;;;;;;3.53;3.20;;;16.00;99.90;;;;;;5080937;28;20994;-57
2022/08/02 06:05:13;;;;;;;4.97;3.27;;;15.90;99.90;;;;;;5081607;28;20427;-56
2022/08/02 06:07:41;;;;;;;3.47;3.17;;;16.00;99.90;;;;;;5085903;28;20432;-57
2022/08/02 06:10:08;;;;;;;5.20;3.10;;;16.00;99.90;;;;;;5089220;28;20578;-57
2022/08/02 06:12:48;;;;;;;3.97;3.57;;;16.10;99.90;;;;;;5088652;28;20459;-57
2022/08/02 06:15:16;;;;;;;3.30;3.00;;;16.10;99.90;;;;;;5082887;28;20430;-58
2022/08/02 06:17:43;;;;;;;3.50;3.20;;;16.20;99.90;;;;;;5087983;28;20412;-57
2022/08/02 06:20:11;;;;;;;7.30;3.13;;;16.20;99.90;;;;;;5089839;28;20415;-58
2022/08/02 06:22:42;;;;;;;4.77;3.50;;;16.30;99.90;;;;;;5088323;28;20907;-59
2022/08/02 06:25:10;;;;;;;5.90;4.77;;;16.40;99.90;;;;;;5089802;28;20427;-57
2022/08/02 06:27:37;;;;;;;4.77;3.70;;;16.40;99.90;;;;;;5089980;28;20942;-59
2022/08/02 06:30:04;;;;;;;3.50;3.20;;;16.50;99.90;;;;;;5090619;28;20450;-58
2022/08/02 06:32:32;;;;;;;3.70;3.40;;;16.50;99.90;;;;;;5091785;28;20909;-56
2022/08/02 06:34:57;;;;;;;4.03;3.63;;;16.60;99.90;;;;;;5090775;28;20974;-58
2022/08/02 06:37:31;;;;;;;6.07;4.43;;;16.60;99.90;;;;;;5074310;28;20408;-57
2022/08/02 06:40:29;;;;;;;8.43;5.27;;;16.80;99.90;;;;;;5086986;28;20195;-57
2022/08/02 06:43:24;;;;;;;7.00;4.67;;;16.90;99.90;;;;;;5089145;28;20487;-57
2022/08/02 06:45:50;;;;;;;10.73;5.43;;;17.10;99.90;;;;;;5045152;28;20547;-57
2022/08/02 06:48:16;;;;;;;8.00;5.80;;;17.30;99.90;;;;;;5082441;28;21155;-56
2022/08/02 06:50:43;;;;;;;6.87;5.17;;;17.40;99.90;;;;;;5089440;28;20197;-58
2022/08/02 06:53:09;;;;;;;8.50;5.23;;;17.60;99.90;;;;;;5089546;28;20253;-57
2022/08/02 06:55:34;;;;;;;8.20;5.37;;;17.70;99.90;;;;;;5092690;28;20486;-57
2022/08/02 06:58:01;;;;;;;9.00;5.70;;;17.80;99.90;;;;;;5090974;28;20451;-58
2022/08/02 07:00:28;;;;;;;9.10;4.27;;;17.90;99.90;;;;;;5086477;28;20198;-57
2022/08/02 07:02:53;;;;;;;8.43;4.13;;;18.00;99.90;;;;;;5094083;28;20833;-58
2022/08/02 07:05:19;;;;;;;8.77;4.17;;;18.00;99.90;;;;;;5093193;28;20406;-59
2022/08/02 07:07:45;;;;;;;5.90;3.87;;;18.00;99.90;;;;;;5089098;28;20689;-58
2022/08/02 07:10:12;;;;;;;6.63;4.23;;;18.10;99.90;;;;;;5089841;28;20181;-57
2022/08/02 07:12:38;;;;;;;6.37;4.40;;;18.30;99.90;;;;;;5080994;28;20258;-58
2022/08/02 07:15:05;;;;;;;7.00;4.00;;;18.30;99.90;;;;;;5085806;28;20427;-59
2022/08/02 07:17:32;;;;;;;4.77;3.10;;;18.30;99.90;;;;;;5084999;28;20195;-57
2022/08/02 07:19:58;;;;;;;6.27;3.10;;;18.40;99.90;;;;;;5088567;28;20975;-57
2022/08/02 07:22:25;;;;;;;4.57;3.30;;;18.50;99.90;;;;;;5090663;28;20567;-57
2022/08/02 07:24:51;;;;;;;11.10;3.90;;;18.60;99.90;;;;;;5081858;28;20437;-58
2022/08/02 07:27:17;;;;;;;7.70;3.80;;;18.70;99.90;;;;;;5074252;28;21085;-58
2022/08/02 07:29:43;;;;;;;6.20;3.10;;;18.80;99.90;;;;;;5075706;28;20431;-58
2022/08/02 07:32:09;;;;;;;7.03;3.10;;;18.90;99.90;;;;;;5081194;28;20447;-58
2022/08/02 07:34:34;;;;;;;3.20;2.90;;;19.00;99.90;;;;;;5087311;28;20578;-57
2022/08/02 07:37:00;;;;;;;11.70;3.83;;;19.10;99.90;;;;;;5078329;28;20182;-57
2022/08/02 07:39:26;;;;;;;6.73;2.63;;;19.20;99.90;;;;;;5086630;28;20213;-58
2022/08/02 07:41:52;;;;;;;4.73;2.80;;;19.40;99.90;;;;;;5092991;28;20225;-57
2022/08/02 07:44:18;;;;;;;3.40;2.87;;;19.50;99.90;;;;;;5088726;28;20549;-58
2022/08/02 07:46:44;;;;;;;6.00;3.13;;;19.60;99.90;;;;;;5091351;28;20201;-57
2022/08/02 07:49:12;;;;;;;3.60;3.20;;;19.60;99.90;;;;;;5082890;28;20420;-59
2022/08/02 07:51:38;;;;;;;4.40;3.10;;;19.70;99.90;;;;;;5088731;28;20945;-59
2022/08/02 07:54:04;;;;;;;4.70;2.70;;;19.80;99.90;;;;;;5088608;28;20453;-58
2022/08/02 07:56:30;;;;;;;3.23;2.80;;;19.90;99.90;;;;;;5076736;28;20433;-58
2022/08/02 07:58:55;;;;;;;4.07;2.67;;;20.10;99.90;;;;;;5084721;28;20197;-58
2022/08/02 08:01:21;;;;;;;4.23;3.07;;;20.20;99.90;;;;;;5089127;28;20197;-57
2022/08/02 08:03:46;;;;;;;3.97;2.60;;;20.40;99.90;;;;;;5074348;28;20202;-58
2022/08/02 08:06:12;;;;;;;2.60;2.40;;;20.50;99.90;;;;;;5079828;28;20214;-58
2022/08/02 08:08:38;;;;;;;3.07;2.77;;;20.70;99.90;;;;;;5086071;28;20561;-59
2022/08/02 08:11:03;;;;;;;1.97;1.83;;;20.90;99.90;;;;;;5090473;28;20214;-57
2022/08/02 08:13:29;;;;;;;2.67;2.43;;;21.00;99.90;;;;;;5080265;28;20359;-58
2022/08/02 08:15:54;;;;;;;3.43;2.73;;;21.10;99.90;;;;;;5082988;28;20650;-58
2022/08/02 08:18:21;;;;;;;3.83;3.07;;;21.10;99.90;;;;;;5073681;28;20182;-59
2022/08/02 08:20:46;;;;;;;3.40;2.53;;;21.10;99.90;;;;;;5085877;28;20189;-58
2022/08/02 08:23:12;;;;;;;3.00;2.73;;;21.20;99.90;;;;;;5089680;28;20859;-58
2022/08/02 08:25:39;;;;;;;5.37;3.00;;;21.30;99.90;;;;;;5085474;28;20588;-58
2022/08/02 08:28:05;;;;;;;5.10;3.47;;;21.50;99.90;;;;;;5088731;28;20964;-58
2022/08/02 08:30:31;;;;;;;3.30;3.00;;;21.60;99.90;;;;;;5088878;28;20526;-58
2022/08/02 08:32:57;;;;;;;7.60;2.90;;;21.70;99.90;;;;;;5091261;28;20497;-60
2022/08/02 08:35:23;;;;;;;9.83;2.97;;;21.80;98.50;;;;;;5085081;28;20503;-58
2022/08/02 08:37:49;;;;;;;6.33;2.40;;;21.70;96.10;;;;;;5074724;28;20200;-57
2022/08/02 08:40:14;;;;;;;4.90;2.90;;;21.60;96.90;;;;;;5077272;28;20448;-58
2022/08/02 08:42:40;;;;;;;5.50;2.70;;;21.70;97.90;;;;;;5079275;28;20259;-59
2022/08/02 08:45:07;;;;;;;4.27;2.90;;;21.70;97.70;;;;;;5089388;28;20197;-58
2022/08/02 08:47:37;;;;;;;2.60;2.40;;;21.90;97.20;;;;;;5085635;28;20178;-57
2022/08/02 08:50:10;;;;;;;4.17;2.80;;;22.10;97.70;;;;;;5082544;28;20431;-59
2022/08/02 08:52:46;;;;;;;9.20;2.83;;;22.30;97.00;;;;;;5078670;28;20424;-58
2022/08/02 08:55:13;;;;;;;4.70;2.30;;;22.60;94.70;;;;;;5087347;28;20462;-58
2022/08/02 08:57:42;;;;;;;3.73;2.67;;;22.80;92.60;;;;;;5091139;28;20523;-59
2022/08/02 09:00:11;;;;;;;2.73;2.50;;;23.10;92.30;;;;;;5089991;28;20411;-59
2022/08/02 09:02:41;;;;;;;3.47;3.10;;;23.30;90.00;;;;;;5088612;28;20488;-58
2022/08/02 09:05:10;;;;;;;5.03;2.80;;;23.50;85.40;;;;;;5087727;28;20447;-59
2022/08/02 09:07:36;;;;;;;3.20;2.50;;;23.70;84.40;;;;;;5091511;28;20422;-58
2022/08/02 09:10:23;;;;;;;2.87;2.30;;;24.00;80.00;;;;;;5088402;28;20495;-59
2022/08/02 09:13:06;;;;;;;2.90;2.53;;;24.10;74.60;;;;;;5089097;28;20177;-61
2022/08/02 09:15:32;;;;;;;2.73;2.53;;;24.20;70.80;;;;;;5090029;28;20820;-58
2022/08/02 09:17:57;;;;;;;2.50;2.30;;;24.30;69.80;;;;;;5073903;28;20435;-59
2022/08/02 09:20:23;;;;;;;14.33;2.87;;;24.30;69.10;;;;;;5070878;28;20190;-58
2022/08/02 09:23:09;;;;;;;3.10;2.07;;;24.40;67.00;;;;;;5088217;28;20193;-58
2022/08/02 09:25:35;;;;;;;2.83;2.50;;;24.60;65.90;;;;;;5085179;28;20169;-59
2022/08/02 09:28:04;;;;;;;5.50;2.70;;;24.70;66.10;;;;;;5081336;28;20458;-58
2022/08/02 09:30:31;;;;;;;5.67;3.03;;;24.80;65.10;;;;;;5086809;28;20459;-58
2022/08/02 09:32:57;;;;;;;4.87;2.87;;;24.80;63.10;;;;;;5082920;28;20834;-58
2022/08/02 09:35:37;;;;;;;2.67;2.47;;;24.90;63.30;;;;;;5079559;28;20928;-59
2022/08/02 09:38:09;;;;;;;4.20;2.57;;;25.10;62.70;;;;;;5087694;28;20407;-59
2022/08/02 09:40:37;;;;;;;5.00;2.57;;;25.30;62.20;;;;;;5077789;28;20493;-58
2022/08/02 09:43:02;;;;;;;2.50;2.30;;;25.40;60.10;;;;;;5070705;28;20460;-58
2022/08/02 09:45:35;;;;;;;3.10;2.90;;;25.50;59.40;;;;;;5079430;28;20411;-59
2022/08/02 09:48:08;;;;;;;9.83;2.97;;;25.60;58.70;;;;;;5077699;28;20206;-59
2022/08/02 09:50:36;;;;;;;3.70;2.10;;;25.70;58.90;;;;;;5074878;28;20447;-58
2022/08/02 09:53:02;;;;;;;2.83;2.63;;;25.80;59.20;;;;;;5078626;28;21001;-59
2022/08/02 09:55:29;;;;;;;3.60;2.60;;;26.00;58.30;;;;;;5078692;28;20424;-58
2022/08/02 09:57:55;;;;;;;2.70;2.33;;;26.10;57.10;;;;;;5082469;28;20428;-59
2022/08/02 10:00:21;;;;;;;3.90;2.60;;;26.10;55.00;;;;;;5087022;28;20451;-59
2022/08/02 10:03:05;;;;;;;2.50;2.30;;;26.10;56.60;;;;;;5085514;28;20258;-58
2022/08/02 10:05:45;;;;;;;3.40;2.07;;;26.10;55.20;;;;;;5081339;28;20248;-60
2022/08/02 10:08:11;;;;;;;5.23;2.13;;;26.00;54.00;;;;;;5078011;28;20515;-59
2022/08/02 10:10:37;;;;;;;2.17;2.00;;;25.80;54.80;;;;;;5080493;28;20487;-58
2022/08/02 10:13:04;;;;;;;2.30;2.10;;;25.70;55.20;;;;;;5088069;28;20453;-58
2022/08/02 10:15:30;;;;;;;2.83;2.30;;;25.70;54.50;;;;;;5090569;28;20177;-59
2022/08/02 10:17:55;;;;;;;2.60;2.20;;;25.80;53.90;;;;;;5083083;28;20431;-59
2022/08/02 10:20:22;;;;;;;3.93;2.43;;;25.70;54.10;;;;;;5086267;28;20206;-58
2022/08/02 10:22:48;;;;;;;2.10;2.00;;;25.60;54.40;;;;;;5081242;28;20208;-58
2022/08/02 10:25:14;;;;;;;3.00;2.70;;;25.40;54.30;;;;;;5078892;28;20428;-59
2022/08/02 10:27:42;;;;;;;3.30;2.30;;;25.40;54.80;;;;;;5076444;28;20530;-58
2022/08/02 10:30:08;;;;;;;4.60;2.40;;;25.50;55.70;;;;;;5081737;28;20439;-59
2022/08/02 10:32:44;;;;;;;2.40;2.20;;;25.80;55.60;;;;;;5081521;28;20511;-59
2022/08/02 10:35:14;;;;;;;4.57;2.63;;;26.20;55.00;;;;;;5087631;28;20439;-59
2022/08/02 10:37:43;;;;;;;4.67;2.63;;;26.50;53.70;;;;;;5081351;28;20436;-58
2022/08/02 10:40:21;;;;;;;2.50;2.30;;;26.70;53.20;;;;;;5075471;28;20907;-59
2022/08/02 10:43:05;;;;;;;2.40;2.20;;;26.90;52.50;;;;;;5073266;28;20538;-57
2022/08/02 10:45:31;;;;;;;3.80;2.33;;;27.00;51.20;;;;;;5063530;28;20428;-57
2022/08/02 10:48:13;;;;;;;2.50;2.20;;;26.90;51.00;;;;;;5074213;28;20432;-59
2022/08/02 10:50:45;;;;;;;1.97;1.87;;;27.00;51.70;;;;;;5069353;28;20842;-57
2022/08/02 10:53:27;;;;;;;3.20;2.60;;;27.30;51.80;;;;;;5083932;28;21182;-56
2022/08/02 10:55:54;;;;;;;3.83;2.13;;;27.70;50.40;;;;;;5071297;28;20761;-59
2022/08/02 10:58:26;;;;;;;1.80;1.70;;;27.90;49.80;;;;;;5078967;28;20209;-58
2022/08/02 11:00:52;;;;;;;1.77;1.67;;;28.10;48.30;;;;;;5072764;28;20211;-58
2022/08/02 11:03:27;;;;;;;2.27;2.07;;;28.20;47.60;;;;;;5076615;28;20221;-58
2022/08/02 11:06:07;;;;;;;2.10;1.80;;;28.40;48.60;;;;;;5071900;28;20217;-57
2022/08/02 11:08:33;;;;;;;2.47;2.07;;;28.50;47.70;;;;;;5076610;28;20168;-57
2022/08/02 11:11:19;;;;;;;3.40;2.40;;;28.50;47.80;;;;;;5077462;28;20189;-58
2022/08/02 11:14:08;;;;;;;2.20;2.00;;;28.60;48.80;;;;;;5072146;28;20204;-59
2022/08/02 11:16:55;;;;;;;3.03;1.90;;;28.80;48.70;;;;;;5083287;28;20173;-59
2022/08/02 11:19:25;;;;;;;2.17;2.03;;;29.00;48.50;;;;;;5080212;28;20190;-59
2022/08/02 11:22:10;;;;;;;3.47;2.08;;;28.90;46.90;;;;;;5082576;28;20194;-58
2022/08/02 11:24:38;;;;;;;6.53;2.50;;;28.40;46.70;;;;;;5079585;28;20244;-57
2022/08/02 11:27:05;;;;;;;2.50;2.30;;;27.90;47.30;;;;;;5080444;28;20804;-59
2022/08/02 11:29:49;;;;;;;1.93;1.83;;;27.50;48.10;;;;;;5080358;28;20683;-58
2022/08/02 11:32:23;;;;;;;2.30;1.93;;;27.20;49.20;;;;;;5086040;28;20637;-58
2022/08/02 11:34:50;;;;;;;4.90;1.90;;;27.20;49.70;;;;;;5076644;28;20181;-58
2022/08/02 11:37:36;;;;;;;5.13;2.00;;;27.50;48.80;;;;;;5077536;28;20189;-58
2022/08/02 11:40:16;;;;;;;1.97;1.77;;;27.90;48.90;;;;;;5075727;28;20181;-59
2022/08/02 11:42:45;;;;;;;2.20;1.73;;;28.20;48.30;;;;;;5083811;28;20189;-58
2022/08/02 11:45:13;;;;;;;2.70;2.00;;;28.20;47.00;;;;;;5080915;28;20178;-59
2022/08/02 11:47:53;;;;;;;2.10;2.00;;;28.00;47.10;;;;;;5080360;28;20231;-58
2022/08/02 11:50:23;;;;;;;2.20;1.87;;;27.80;47.80;;;;;;5079265;28;20197;-57
2022/08/02 11:52:52;;;;;;;6.03;1.97;;;27.50;47.90;;;;;;5081926;28;20258;-59
2022/08/02 11:55:25;;;;;;;2.30;1.93;;;27.20;47.80;;;;;;5070801;28;20165;-60
2022/08/02 11:57:57;;;;;;;4.13;2.13;;;27.00;48.30;;;;;;5081678;28;20181;-58
2022/08/02 12:00:23;;;;;;;2.00;1.90;;;27.30;49.30;;;;;;5072174;28;20275;-60
2022/08/02 12:02:48;;;;;;;2.30;2.10;;;27.70;47.90;;;;;;5081075;28;20243;-60
2022/08/02 12:05:18;;;;;;;2.40;2.00;;;28.10;46.10;;;;;;5081111;28;20194;-60
2022/08/02 12:07:45;;;;;;;2.83;1.83;;;28.40;44.80;;;;;;5083153;28;20173;-60
2022/08/02 12:10:17;;;;;;;2.23;2.13;;;28.50;45.20;;;;;;5080998;28;20190;-60
2022/08/02 12:12:58;;;;;;;3.77;2.17;;;28.40;45.70;;;;;;5073252;28;20173;-58
2022/08/02 12:15:40;;;;;;;2.40;2.20;;;28.10;46.40;;;;;;5075238;28;20179;-58
2022/08/02 12:21:03;;;;;;;2.30;1.70;;;27.70;47.50;;;;;;5080315;28;20224;-58
2022/08/02 12:23:29;;;;;;;2.17;2.07;;;27.50;48.00;;;;;;5077196;28;20683;-58
2022/08/02 12:26:13;;;;;;;4.10;2.00;;;27.30;48.00;;;;;;5081513;28;20678;-58
2022/08/02 12:28:39;;;;;;;4.57;2.20;;;27.20;48.40;;;;;;5079103;28;20207;-58
2022/08/02 12:31:12;;;;;;;2.27;2.07;;;27.10;48.30;;;;;;5075659;28;20605;-57
2022/08/02 12:33:45;;;;;;;2.10;2.00;;;27.00;48.20;;;;;;5076636;28;20178;-59
2022/08/02 12:36:23;;;;;;;3.93;2.63;;;26.90;48.20;;;;;;5073001;28;20174;-58
2022/08/02 12:38:59;;;;;;;3.30;2.00;;;26.90;48.60;;;;;;5077110;28;20230;-58
2022/08/02 12:41:27;;;;;;;1.97;1.87;;;26.80;48.50;;;;;;5077847;28;20693;-59
2022/08/02 12:43:54;;;;;;;5.67;2.03;;;26.70;48.80;;;;;;5082471;28;20255;-59
2022/08/02 12:46:23;;;;;;;4.20;2.20;;;26.70;49.00;;;;;;5073979;28;20203;-58
2022/08/02 12:48:49;;;;;;;2.47;2.27;;;26.80;48.90;;;;;;5068328;28;20174;-58
2022/08/02 12:51:18;;;;;;;2.30;2.10;;;26.90;48.80;;;;;;5063477;28;20193;-58
2022/08/02 12:53:44;;;;;;;4.90;1.80;;;26.90;48.60;;;;;;5064166;28;20229;-59
2022/08/02 12:56:10;;;;;;;2.70;2.10;;;27.20;48.90;;;;;;5064609;28;20585;-59
2022/08/02 12:58:49;;;;;;;2.90;2.17;;;27.30;48.00;;;;;;5066842;28;20276;-59
2022/08/02 13:01:23;;;;;;;2.37;2.17;;;27.30;48.00;;;;;;5075117;28;20200;-59